S/y Freja — XPE7263 — position and weather

sailwx.info

Track history (hours):
 
Tides and Currents Weather Stations Pressure Air Temp Water Temp Dewpoint Dewpoint Depression Visibility Wind Speed Wind Dir Waves Ship Positions

S/y Freja

Last reported at 2018-Mar-16 23:55 UTC. Time now 2018-Jun-21 06:53 UTC.
Position S 27°56' E 153°25'.
Warning: this ship's position is months out of date.

Length 14 m.

Type: Sailing vessel. MMSI: 219020918.

Date/timePositionNaut miles runAvg speedWind from/ knotsBaromVisibWave heightAir tempDewpointWater temp
2018-Mar-16 23:55S 27°56' E 153°25'  
2018-Mar-14 13:56S 27°58' E 153°26'0 0.0
2018-Mar-14 11:26S 27°58' E 153°26'0 0.0
2018-Mar-14 10:56S 27°58' E 153°26'0 0.0
2018-Mar-14 10:29S 27°58' E 153°26'0 0.0
2018-Mar-13 13:32S 27°58' E 153°26'4 1.2
2018-Mar-13 10:26S 28°00' E 153°29'3 6.2
2018-Mar-13 10:00S 28°03' E 153°30'3 5.8
2018-Mar-13 09:30S 28°05' E 153°32'3 5.9
2018-Mar-13 09:00S 28°08' E 153°34'3 5.7
2018-Mar-13 08:30S 28°10' E 153°36'3 5.4
2018-Mar-13 08:00S 28°12' E 153°38'3 6.1
2018-Mar-13 07:30S 28°15' E 153°37'3 6.3
2018-Mar-13 06:59S 28°19' E 153°38'  
2018-Mar-10 23:28S 32°29' E 152°35'2 4.2
2018-Mar-10 22:53S 32°31' E 152°33'2 4.4
2018-Mar-10 22:30S 32°32' E 152°31'2 3.7
2018-Mar-10 22:00S 32°33' E 152°30'5 4.0
2018-Mar-10 20:50S 32°36' E 152°26'1 3.9
2018-Mar-10 20:27S 32°37' E 152°24'2 3.9
2018-Mar-10 19:55S 32°38' E 152°22'2 4.3
2018-Mar-10 19:30S 32°40' E 152°21'2 4.4
2018-Mar-10 19:00S 32°41' E 152°19'2 4.8
2018-Mar-10 18:30S 32°43' E 152°17'3 4.9
2018-Mar-10 17:58S 32°45' E 152°15'2 4.8
2018-Mar-10 17:30S 32°46' E 152°13'2 5.0
2018-Mar-10 17:00S 32°48' E 152°10'3 5.1
2018-Mar-10 16:30S 32°49' E 152°08'3 5.1
2018-Mar-10 16:00S 32°51' E 152°06'2 4.8
2018-Mar-10 15:29S 32°53' E 152°04'59 1.6
2018-Mar-09 02:09S 33°38' E 151°18'0 1.3
2018-Mar-09 02:00S 33°38' E 151°18'1 2.0
2018-Mar-09 01:29S 33°39' E 151°18'0 0.0
2018-Mar-09 00:55S 33°39' E 151°18'0 0.0
2018-Mar-09 00:28S 33°39' E 151°18'0 0.0
2018-Mar-08 23:58S 33°39' E 151°18'0 0.0
2018-Mar-08 23:22S 33°39' E 151°18'0 0.0
2018-Mar-08 22:58S 33°39' E 151°18'0 0.0
2018-Mar-08 22:28S 33°39' E 151°18'0 0.0
2018-Mar-08 21:55S 33°39' E 151°18'0 0.0
2018-Mar-08 21:28S 33°39' E 151°18'0 0.0
2018-Mar-08 20:58S 33°39' E 151°18'0 0.0
2018-Mar-08 20:22S 33°39' E 151°18'  
Track history (hours):
 
Tides and Currents Weather Stations Pressure Air Temp Water Temp Dewpoint Dewpoint Depression Visibility Wind Speed Wind Dir Waves Ship Positions

S/y Freja

Last reported at 2018-Mar-16 23:55 UTC. Time now 2018-Jun-21 06:53 UTC.
Position S 27°56' E 153°25'.
Warning: this ship's position is months out of date.

Length 14 m.

Type: Sailing vessel. MMSI: 219020918.

Date/timePositionNaut miles runAvg speedWind from/ knotsBaromVisibWave heightAir tempDewpointWater temp
2018-Mar-16 23:55S 27°56' E 153°25'  
2018-Mar-14 13:56S 27°58' E 153°26'0 0.0
2018-Mar-14 11:26S 27°58' E 153°26'0 0.0
2018-Mar-14 10:56S 27°58' E 153°26'0 0.0
2018-Mar-14 10:29S 27°58' E 153°26'0 0.0
2018-Mar-13 13:32S 27°58' E 153°26'4 1.2
2018-Mar-13 10:26S 28°00' E 153°29'3 6.2
2018-Mar-13 10:00S 28°03' E 153°30'3 5.8
2018-Mar-13 09:30S 28°05' E 153°32'3 5.9
2018-Mar-13 09:00S 28°08' E 153°34'3 5.7
2018-Mar-13 08:30S 28°10' E 153°36'3 5.4
2018-Mar-13 08:00S 28°12' E 153°38'3 6.1
2018-Mar-13 07:30S 28°15' E 153°37'3 6.3
2018-Mar-13 06:59S 28°19' E 153°38'  
2018-Mar-10 23:28S 32°29' E 152°35'2 4.2
2018-Mar-10 22:53S 32°31' E 152°33'2 4.4
2018-Mar-10 22:30S 32°32' E 152°31'2 3.7
2018-Mar-10 22:00S 32°33' E 152°30'5 4.0
2018-Mar-10 20:50S 32°36' E 152°26'1 3.9
2018-Mar-10 20:27S 32°37' E 152°24'2 3.9
2018-Mar-10 19:55S 32°38' E 152°22'2 4.3
2018-Mar-10 19:30S 32°40' E 152°21'2 4.4
2018-Mar-10 19:00S 32°41' E 152°19'2 4.8
2018-Mar-10 18:30S 32°43' E 152°17'3 4.9
2018-Mar-10 17:58S 32°45' E 152°15'2 4.8
2018-Mar-10 17:30S 32°46' E 152°13'2 5.0
2018-Mar-10 17:00S 32°48' E 152°10'3 5.1
2018-Mar-10 16:30S 32°49' E 152°08'3 5.1
2018-Mar-10 16:00S 32°51' E 152°06'2 4.8
2018-Mar-10 15:29S 32°53' E 152°04'59 1.6
2018-Mar-09 02:09S 33°38' E 151°18'0 1.3
2018-Mar-09 02:00S 33°38' E 151°18'1 2.0
2018-Mar-09 01:29S 33°39' E 151°18'0 0.0
2018-Mar-09 00:55S 33°39' E 151°18'0 0.0
2018-Mar-09 00:28S 33°39' E 151°18'0 0.0
2018-Mar-08 23:58S 33°39' E 151°18'0 0.0
2018-Mar-08 23:22S 33°39' E 151°18'0 0.0
2018-Mar-08 22:58S 33°39' E 151°18'0 0.0
2018-Mar-08 22:28S 33°39' E 151°18'0 0.0
2018-Mar-08 21:55S 33°39' E 151°18'0 0.0
2018-Mar-08 21:28S 33°39' E 151°18'0 0.0
2018-Mar-08 20:58S 33°39' E 151°18'0 0.0
2018-Mar-08 20:22S 33°39' E 151°18'  

Dump ship's entire track history